Time;durP1;ratioP1;P1;durP2;ratioP2;P2;SDS_P1;SDS_P2;PMS_P1;PMS_P2;Temp;Humidity;BMP_temperature;BMP_pressure;BME280_temperature;BME280_humidity;BME280_pressure;Samples;Min_cycle;Max_cycle;Signal;HPM_P1;HPM_P2
2021/11/11 00:00:52;;;;;;;3.42;2.47;;;;;;;26.08;31.56;97169.34;5064604;28;20487;-35
2021/11/11 00:03:18;;;;;;;5.35;2.60;;;;;;;26.07;31.51;97163.28;5066517;28;20038;-32
2021/11/11 00:05:44;;;;;;;3.83;2.42;;;;;;;26.07;31.53;97158.03;5067050;28;20024;-35
2021/11/11 00:08:09;;;;;;;4.38;2.80;;;;;;;26.07;31.45;97160.66;5064459;28;20046;-34
2021/11/11 00:10:35;;;;;;;3.15;2.22;;;;;;;26.06;31.54;97161.56;5066070;28;20046;-31
2021/11/11 00:13:00;;;;;;;2.90;2.20;;;;;;;26.07;31.47;97162.41;5070244;28;20021;-34
2021/11/11 00:15:26;;;;;;;4.78;2.65;;;;;;;26.06;31.49;97160.72;5067211;28;20024;-33
2021/11/11 00:17:51;;;;;;;6.32;2.80;;;;;;;26.07;31.53;97157.16;5067242;28;21008;-33
2021/11/11 00:20:19;;;;;;;4.50;2.28;;;;;;;26.06;31.58;97144.97;5066801;28;20039;-32
2021/11/11 00:22:44;;;;;;;6.93;2.67;;;;;;;26.06;31.60;97153.69;5063893;28;20621;-30
2021/11/11 00:25:10;;;;;;;5.18;2.50;;;;;;;26.05;31.40;97144.09;5067291;28;20036;-33
2021/11/11 00:27:37;;;;;;;4.30;2.42;;;;;;;26.06;31.36;97145.81;5064910;28;20070;-33
2021/11/11 00:30:03;;;;;;;3.67;2.15;;;;;;;26.04;31.52;97137.16;5048430;28;20063;-32
2021/11/11 00:32:28;;;;;;;5.03;2.60;;;;;;;26.05;31.58;97133.59;5064808;28;20040;-32
2021/11/11 00:34:54;;;;;;;3.90;2.50;;;;;;;26.04;31.60;97136.28;5067404;28;20024;-34
2021/11/11 00:37:20;;;;;;;5.20;2.38;;;;;;;26.05;31.44;97148.50;5067838;28;20032;-34
2021/11/11 00:39:45;;;;;;;5.60;2.35;;;;;;;26.05;31.58;97148.50;5065071;28;20036;-34
2021/11/11 00:42:11;;;;;;;3.95;2.20;;;;;;;26.03;31.53;97143.34;5071447;28;20044;-32
2021/11/11 00:44:36;;;;;;;3.38;2.45;;;;;;;26.04;31.36;97142.41;5068619;28;20089;-35
2021/11/11 00:47:02;;;;;;;4.78;2.40;;;;;;;26.05;31.41;97135.38;5068334;28;20031;-32
2021/11/11 00:49:28;;;;;;;3.80;2.20;;;;;;;26.04;31.40;97145.03;5084968;28;20032;-36
2021/11/11 00:51:54;;;;;;;4.20;2.20;;;;;;;26.04;31.57;97147.66;5066303;28;20085;-36
2021/11/11 00:54:19;;;;;;;2.88;2.10;;;;;;;26.04;31.37;97150.28;5066336;28;20066;-32
2021/11/11 00:56:44;;;;;;;5.68;2.35;;;;;;;26.04;31.49;97152.03;5069835;28;20020;-31
2021/11/11 00:59:11;;;;;;;4.13;2.47;;;;;;;26.03;31.42;97151.22;5072900;28;20024;-33
2021/11/11 01:01:36;;;;;;;3.00;2.28;;;;;;;26.02;31.41;97139.00;5071948;28;20709;-34
2021/11/11 01:04:02;;;;;;;3.55;2.40;;;;;;;26.03;31.27;97145.97;5074449;28;20028;-32
2021/11/11 01:06:28;;;;;;;2.78;2.20;;;;;;;26.02;31.83;97146.91;5072369;28;20055;-35
2021/11/11 01:08:53;;;;;;;3.28;1.98;;;;;;;26.03;31.48;97151.22;5054837;28;20529;-31
2021/11/11 01:11:19;;;;;;;3.92;2.30;;;;;;;26.01;31.39;97150.41;5074407;28;20028;-36
2021/11/11 01:13:44;;;;;;;3.30;2.05;;;;;;;26.02;31.31;97144.25;5071754;28;20037;-34
2021/11/11 01:16:09;;;;;;;3.40;2.25;;;;;;;26.01;31.51;97147.78;5068068;28;20031;-33
2021/11/11 01:18:35;;;;;;;3.55;2.20;;;;;;;26.02;31.41;97143.41;5068010;28;20609;-35
2021/11/11 01:21:00;;;;;;;2.60;2.05;;;;;;;26.02;31.41;97140.78;5068061;28;20089;-35
2021/11/11 01:23:26;;;;;;;3.50;2.25;;;;;;;26.01;31.47;97131.22;5069193;28;20024;-32
2021/11/11 01:25:51;;;;;;;4.50;2.28;;;;;;;26.02;31.50;97131.13;5072993;28;20032;-35
2021/11/11 01:28:17;;;;;;;3.53;2.38;;;;;;;26.01;31.42;97137.28;5068003;28;20058;-34
2021/11/11 01:30:43;;;;;;;4.90;2.00;;;;;;;26.01;31.50;97137.28;5071051;28;20077;-33
2021/11/11 01:33:09;;;;;;;3.63;1.88;;;;;;;26.02;31.51;97130.28;5070366;28;20492;-32
2021/11/11 01:35:35;;;;;;;4.70;2.10;;;;;;;26.01;31.18;97137.28;5082826;27;20039;-32
2021/11/11 01:38:00;;;;;;;2.63;2.00;;;;;;;26.01;31.51;97141.72;5051108;28;20471;-29
2021/11/11 01:40:26;;;;;;;3.03;2.33;;;;;;;26.00;31.38;97143.47;5056199;28;20036;-33
2021/11/11 01:42:53;;;;;;;3.55;2.10;;;;;;;26.00;31.41;97140.84;5060390;28;20036;-29
2021/11/11 01:45:33;;;;;;;2.95;1.92;;;;;;;26.00;31.41;97150.53;5058114;28;20028;-32
2021/11/11 01:47:58;;;;;;;2.60;1.98;;;;;;;26.00;31.37;97140.00;5055957;28;20063;-37
2021/11/11 01:50:24;;;;;;;3.90;2.15;;;;;;;26.00;31.34;97140.84;5052219;28;20458;-33
2021/11/11 01:52:49;;;;;;;2.97;2.20;;;;;;;25.98;31.49;97137.47;5060498;28;20103;-32
2021/11/11 01:55:15;;;;;;;3.55;2.20;;;;;;;25.98;31.38;97139.22;5069260;28;20400;-33
2021/11/11 01:57:40;;;;;;;3.42;2.10;;;;;;;25.98;31.43;97141.84;5072919;28;20437;-35
2021/11/11 02:00:17;;;;;;;2.28;1.85;;;;;;;25.97;31.34;97135.72;5067896;28;20058;-34
2021/11/11 02:02:43;;;;;;;2.50;2.00;;;;;;;25.98;31.31;97132.22;5066742;28;20074;-35
2021/11/11 02:05:08;;;;;;;3.00;2.35;;;;;;;25.97;31.55;97127.84;5068837;28;20020;-33
2021/11/11 02:07:34;;;;;;;2.50;1.80;;;;;;;25.97;31.38;97119.97;5068805;28;20546;-32
2021/11/11 02:09:59;;;;;;;2.80;1.95;;;;;;;25.98;31.32;97121.69;5070513;28;20036;-33
2021/11/11 02:12:24;;;;;;;4.20;1.98;;;;;;;25.96;31.38;97118.28;5073365;28;20032;-36
2021/11/11 02:14:50;;;;;;;3.22;1.95;;;;;;;25.96;31.48;97107.78;5068036;28;20072;-36
2021/11/11 02:17:16;;;;;;;2.72;2.00;;;;;;;25.96;31.50;97099.91;5067059;28;20031;-32
2021/11/11 02:19:43;;;;;;;3.97;2.00;;;;;;;25.95;31.44;97095.59;5046458;28;20028;-34
2021/11/11 02:22:09;;;;;;;4.70;1.95;;;;;;;25.95;31.43;97103.47;5068853;28;20077;-33
2021/11/11 02:24:34;;;;;;;2.67;2.00;;;;;;;25.95;31.55;97111.34;5068531;28;20420;-35
2021/11/11 02:26:59;;;;;;;2.63;1.88;;;;;;;25.94;31.36;97099.16;5068451;28;20037;-34
2021/11/11 02:29:25;;;;;;;5.13;2.10;;;;;;;25.94;31.69;97102.59;5070912;28;20024;-34
2021/11/11 02:31:50;;;;;;;4.18;1.85;;;;;;;25.94;31.43;97099.16;5064375;28;20643;-33
2021/11/11 02:34:19;;;;;;;2.40;2.00;;;;;;;25.93;31.30;97111.41;5068365;28;20035;-33
2021/11/11 02:36:59;;;;;;;4.25;2.08;;;;;;;25.94;31.45;97114.91;5068582;28;20024;-34
2021/11/11 02:39:29;;;;;;;7.13;3.90;;;;;;;25.94;30.86;97114.91;5066641;28;20312;-31
2021/11/11 02:41:54;;;;;;;3.25;2.58;;;;;;;25.92;30.95;97111.47;5067917;28;20036;-32
2021/11/11 02:44:20;;;;;;;3.05;2.20;;;;;;;25.91;31.05;97115.91;5068263;28;20036;-36
2021/11/11 02:46:45;;;;;;;3.35;2.17;;;;;;;25.90;31.12;97113.34;5068025;28;20031;-32
2021/11/11 02:49:10;;;;;;;4.00;2.35;;;;;;;25.90;31.33;97115.97;5066068;28;20032;-34
2021/11/11 02:51:36;;;;;;;2.70;2.00;;;;;;;25.90;31.26;97118.59;5063825;28;20119;-31
2021/11/11 02:54:02;;;;;;;3.28;2.30;;;;;;;25.89;31.36;97117.72;5060257;28;20028;-35
2021/11/11 02:56:27;;;;;;;2.15;1.88;;;;;;;25.90;31.26;97118.59;5067517;28;20320;-32
2021/11/11 02:58:52;;;;;;;3.58;2.22;;;;;;;25.90;31.32;97115.97;5069036;28;20652;-32
2021/11/11 03:01:18;;;;;;;2.85;2.22;;;;;;;25.86;31.40;97107.41;5068036;28;20036;-34
2021/11/11 03:03:43;;;;;;;3.17;1.95;;;;;;;25.89;31.22;97116.91;5067650;28;20038;-35
2021/11/11 03:06:09;;;;;;;2.47;1.90;;;;;;;25.88;31.23;97116.03;5069387;28;20025;-32
2021/11/11 03:08:35;;;;;;;3.08;1.90;;;;;;;25.89;31.33;97122.16;5064662;28;20043;-34
2021/11/11 03:11:04;;;;;;;2.97;2.05;;;;;;;25.88;31.26;97116.03;5064968;28;20028;-33
2021/11/11 03:13:29;;;;;;;2.00;1.80;;;;;;;25.88;31.27;97109.94;5067558;28;20024;-33
2021/11/11 03:15:55;;;;;;;4.60;2.13;;;;;;;25.88;31.47;97107.31;5071042;28;20040;-35
2021/11/11 03:18:21;;;;;;;2.95;1.90;;;;;;;25.88;31.49;97102.06;5068047;28;20503;-35
2021/11/11 03:20:47;;;;;;;3.00;1.80;;;;;;;25.86;31.43;97106.53;5067371;28;20032;-34
2021/11/11 03:23:12;;;;;;;3.17;2.10;;;;;;;25.87;31.52;97108.22;5070259;28;20129;-34
2021/11/11 03:25:40;;;;;;;2.42;1.90;;;;;;;25.86;31.35;97102.16;5067665;28;20028;-32
2021/11/11 03:28:05;;;;;;;2.50;1.92;;;;;;;25.86;31.40;97094.28;5067331;28;20024;-36
2021/11/11 03:30:31;;;;;;;3.15;2.10;;;;;;;25.86;31.40;97102.16;5067259;28;20104;-34
2021/11/11 03:32:56;;;;;;;3.00;2.03;;;;;;;25.85;31.39;97097.81;5067634;28;20494;-33
2021/11/11 03:35:22;;;;;;;2.25;1.75;;;;;;;25.85;31.27;97099.59;5069603;28;20058;-33
2021/11/11 03:37:48;;;;;;;3.38;2.00;;;;;;;25.85;31.32;97105.69;5069975;28;20566;-30
2021/11/11 03:40:19;;;;;;;2.55;1.80;;;;;;;25.86;31.32;97106.53;5066572;28;20024;-34
2021/11/11 03:42:46;;;;;;;2.85;1.95;;;;;;;25.85;31.34;97107.47;5068956;28;20134;-33
2021/11/11 03:45:12;;;;;;;3.10;2.00;;;;;;;25.85;31.27;97110.09;5068711;28;20083;-33
2021/11/11 03:47:37;;;;;;;2.05;1.70;;;;;;;25.85;31.30;97110.09;5063928;28;20496;-35
2021/11/11 03:50:04;;;;;;;2.83;1.92;;;;;;;25.85;31.48;97107.47;5066563;28;20032;-34
2021/11/11 03:52:29;;;;;;;3.00;2.10;;;;;;;25.83;31.28;97103.13;5070593;28;20025;-36
2021/11/11 03:54:54;;;;;;;2.45;1.70;;;;;;;25.84;31.28;97103.97;5070753;28;20035;-31
2021/11/11 03:57:20;;;;;;;2.22;1.73;;;;;;;25.83;31.40;97107.53;5068493;28;20024;-33
2021/11/11 03:59:45;;;;;;;2.88;1.75;;;;;;;25.82;31.25;97101.44;5068043;28;20032;-33
2021/11/11 04:02:13;;;;;;;2.47;2.05;;;;;;;25.80;31.30;97099.81;5054108;28;20040;-35
2021/11/11 04:04:39;;;;;;;2.75;1.85;;;;;;;25.83;31.34;97097.88;5069927;28;20025;-33
2021/11/11 04:07:05;;;;;;;3.58;1.88;;;;;;;25.83;31.26;97112.78;5066652;28;20044;-30
2021/11/11 04:09:30;;;;;;;4.90;2.00;;;;;;;25.82;31.49;97111.94;5064379;28;20028;-30
2021/11/11 04:11:55;;;;;;;1.58;1.40;;;;;;;25.82;31.33;97106.69;5069032;28;20269;-34
2021/11/11 04:14:21;;;;;;;2.95;1.90;;;;;;;25.81;31.21;97110.22;5068396;28;20020;-34
2021/11/11 04:16:47;;;;;;;1.85;1.63;;;;;;;25.81;31.24;97115.50;5074825;28;20016;-34
2021/11/11 04:19:13;;;;;;;1.88;1.67;;;;;;;25.81;31.32;97123.34;5069780;28;23066;-35
2021/11/11 04:21:38;;;;;;;2.85;1.98;;;;;;;25.81;31.32;97115.50;5071719;28;20552;-35
2021/11/11 04:24:04;;;;;;;2.03;1.80;;;;;;;25.81;31.40;97112.00;5070464;28;20035;-34
2021/11/11 04:26:32;;;;;;;2.65;1.80;;;;;;;25.80;31.37;97116.41;5069380;28;20033;-35
2021/11/11 04:29:01;;;;;;;5.13;1.90;;;;;;;25.81;31.21;97114.63;5076770;28;20695;-33
2021/11/11 04:31:32;;;;;;;1.70;1.50;;;;;;;25.80;31.38;97112.94;5071188;28;20039;-34
2021/11/11 04:34:02;;;;;;;1.73;1.60;;;;;;;25.80;31.47;97119.03;5066115;28;20057;-30
2021/11/11 04:42:09;;;;;;;1.90;1.60;;;;;;;25.78;31.44;97118.25;5070392;28;20526;-33
2021/11/11 04:44:53;;;;;;;3.13;1.60;;;;;;;25.79;31.28;97122.59;5071707;28;20035;-31
2021/11/11 05:05:27;;;;;;;2.40;1.73;;;;;;;25.77;31.39;97145.44;5073115;28;20085;-34
2021/11/11 05:07:54;;;;;;;1.95;1.60;;;;;;;25.76;31.22;97142.88;5070756;28;20028;-34
2021/11/11 05:10:19;;;;;;;8.07;1.98;;;;;;;25.75;31.20;97147.28;5072302;28;20016;-33
2021/11/11 05:12:45;;;;;;;1.85;1.52;;;;;;;25.76;31.38;97143.75;5070633;28;20505;-35
2021/11/11 05:15:11;;;;;;;2.35;1.50;;;;;;;25.76;31.42;97148.97;5075005;28;20056;-32
2021/11/11 05:17:38;;;;;;;3.85;1.85;;;;;;;25.76;31.32;97153.38;5068138;28;20142;-30
2021/11/11 05:20:04;;;;;;;2.35;1.75;;;;;;;25.75;31.29;97151.69;5070112;28;20348;-32
2021/11/11 05:22:30;;;;;;;2.63;1.77;;;;;;;25.74;31.38;97145.56;5075530;28;22668;-32
2021/11/11 05:24:55;;;;;;;1.85;1.60;;;;;;;25.75;31.23;97147.28;5070455;28;20021;-36
2021/11/11 05:27:23;;;;;;;1.88;1.50;;;;;;;25.74;31.52;97140.31;5070192;28;20029;-33
2021/11/11 05:29:48;;;;;;;3.38;1.70;;;;;;;25.75;31.32;97131.53;5065608;28;20191;-32
2021/11/11 05:32:13;;;;;;;2.80;1.60;;;;;;;25.75;31.43;97134.16;5070620;28;20028;-34
2021/11/11 05:34:39;;;;;;;4.03;1.73;;;;;;;25.74;31.29;97132.44;5069694;28;20040;-32
2021/11/11 05:37:04;;;;;;;2.20;1.60;;;;;;;25.74;31.29;97124.56;5058968;28;20037;-32
2021/11/11 05:39:30;;;;;;;1.70;1.38;;;;;;;25.73;31.27;97122.88;5064484;28;20061;-37
2021/11/11 05:41:55;;;;;;;1.75;1.50;;;;;;;25.74;31.20;97124.56;5072936;28;20032;-32
2021/11/11 05:44:21;;;;;;;2.60;1.60;;;;;;;25.72;31.39;97126.44;5068892;28;20643;-34
2021/11/11 05:46:46;;;;;;;1.85;1.38;;;;;;;25.74;31.27;97129.81;5068498;28;20089;-38
2021/11/11 05:49:12;;;;;;;2.15;1.50;;;;;;;25.74;31.36;97118.50;5069830;28;20035;-33
2021/11/11 05:51:37;;;;;;;1.58;1.48;;;;;;;25.73;31.31;97119.41;5070413;28;20032;-36
2021/11/11 05:54:02;;;;;;;1.80;1.40;;;;;;;25.73;31.29;97117.63;5072476;28;20032;-34
2021/11/11 05:56:28;;;;;;;2.40;1.50;;;;;;;25.73;31.31;97115.00;5070808;28;20031;-33
2021/11/11 05:58:53;;;;;;;1.85;1.50;;;;;;;25.72;31.20;97118.56;5067646;28;20025;-33
2021/11/11 06:01:19;;;;;;;2.25;1.30;;;;;;;25.73;31.27;97117.63;5068579;28;20027;-34
2021/11/11 06:03:45;;;;;;;3.10;1.40;;;;;;;25.72;31.28;97118.56;5069399;28;20024;-36
2021/11/11 06:06:10;;;;;;;1.90;1.45;;;;;;;25.72;31.24;97121.19;5071948;28;20032;-34
2021/11/11 06:08:36;;;;;;;1.60;1.50;;;;;;;25.71;31.23;97124.72;5072821;28;20036;-33
2021/11/11 06:11:01;;;;;;;2.72;1.60;;;;;;;25.68;31.29;97125.72;5071525;28;20037;-33
2021/11/11 06:13:27;;;;;;;1.88;1.50;;;;;;;25.71;31.35;97129.97;5068421;28;20119;-34
2021/11/11 06:15:52;;;;;;;4.47;1.50;;;;;;;25.71;31.32;97129.97;5068493;28;20488;-33
2021/11/11 06:18:20;;;;;;;1.75;1.52;;;;;;;25.72;31.28;97136.94;5068705;28;20046;-31
2021/11/11 06:20:47;;;;;;;3.25;2.10;;;;;;;25.72;31.11;97134.31;5068232;28;20415;-34
2021/11/11 06:23:13;;;;;;;3.28;1.80;;;;;;;25.72;31.28;97136.94;5065971;28;20028;-32
2021/11/11 06:25:40;;;;;;;1.92;1.63;;;;;;;25.72;31.36;97136.94;5064681;28;20579;-33
2021/11/11 06:28:05;;;;;;;15.95;1.90;;;;;;;25.72;31.15;97138.69;5062618;28;20031;-31
2021/11/11 06:30:31;;;;;;;19.20;3.58;;;;;;;25.72;31.12;97150.06;5064068;28;20106;-32
2021/11/11 06:32:56;;;;;;;20.58;5.50;;;;;;;25.72;31.31;97152.69;5064784;28;20024;-34
2021/11/11 06:35:22;;;;;;;13.27;5.93;;;;;;;25.72;31.13;97152.69;5065289;28;20027;-35
2021/11/11 06:37:47;;;;;;;19.08;5.75;;;;;;;25.71;31.16;97156.22;5066604;28;20028;-35
2021/11/11 06:40:12;;;;;;;14.45;4.97;;;;;;;25.70;31.21;97155.38;5066775;28;20046;-33
2021/11/11 06:42:38;;;;;;;14.02;5.70;;;;;;;25.70;31.33;97150.13;5064455;28;20036;-33
2021/11/11 06:45:10;;;;;;;10.45;4.10;;;;;;;25.71;30.78;97150.97;5048547;28;20044;-33
2021/11/11 06:47:36;;;;;;;10.00;4.65;;;;;;;25.69;30.45;97147.56;5062781;28;20028;-35
2021/11/11 06:50:01;;;;;;;15.00;4.65;;;;;;;25.68;30.68;97151.97;5067403;28;20027;-32
2021/11/11 06:52:27;;;;;;;10.50;4.38;;;;;;;25.69;30.82;97158.06;5067621;28;20024;-32
2021/11/11 06:54:52;;;;;;;14.40;4.13;;;;;;;25.69;30.91;97155.44;5065029;28;20028;-34
2021/11/11 06:57:17;;;;;;;10.30;4.25;;;;;;;25.69;31.15;97143.19;5066275;28;20028;-30
2021/11/11 06:59:43;;;;;;;9.45;3.90;;;;;;;25.71;31.25;97150.97;5064797;28;20031;-35
2021/11/11 07:02:08;;;;;;;9.85;4.18;;;;;;;25.71;31.31;97145.72;5070651;28;20023;-35
2021/11/11 07:04:34;;;;;;;8.65;3.83;;;;;;;25.71;31.30;97140.47;5062214;28;20028;-33
2021/11/11 07:07:00;;;;;;;10.05;3.53;;;;;;;25.72;31.30;97131.69;5064897;28;20028;-32
2021/11/11 07:09:25;;;;;;;9.30;4.20;;;;;;;25.73;31.27;97130.75;5065538;28;20058;-33
2021/11/11 07:11:51;;;;;;;14.05;4.00;;;;;;;25.73;31.49;97143.88;5061602;28;20021;-33
2021/11/11 07:14:17;;;;;;;12.85;4.00;;;;;;;25.71;31.24;97140.47;5062872;28;20024;-29
2021/11/11 07:16:45;;;;;;;8.23;3.95;;;;;;;25.75;31.34;97149.91;5063881;28;20028;-32
2021/11/11 07:19:10;;;;;;;11.77;3.50;;;;;;;25.75;31.29;97142.03;5066429;28;20029;-35
2021/11/11 07:21:35;;;;;;;9.80;3.50;;;;;;;25.76;31.35;97148.13;5062916;28;20385;-33
2021/11/11 07:24:01;;;;;;;7.50;3.60;;;;;;;25.77;31.43;97155.06;5063893;28;20506;-33
2021/11/11 07:26:26;;;;;;;8.48;3.60;;;;;;;25.77;31.39;97155.06;5063358;28;20032;-33
2021/11/11 07:28:52;;;;;;;7.90;3.67;;;;;;;25.78;31.35;97149.75;5064690;28;20199;-33
2021/11/11 07:31:22;;;;;;;6.10;3.25;;;;;;;25.78;31.34;97141.88;5063549;28;20028;-31
2021/11/11 07:33:48;;;;;;;7.57;3.50;;;;;;;25.79;31.47;97143.59;5063434;28;20032;-29
2021/11/11 07:36:13;;;;;;;7.53;3.00;;;;;;;25.79;31.52;97146.22;5063680;28;20073;-32
2021/11/11 07:38:39;;;;;;;7.28;3.22;;;;;;;25.81;31.62;97148.75;5065606;28;20028;-31
2021/11/11 07:41:04;;;;;;;11.88;5.63;;;;;;;25.78;30.05;97157.63;5061931;28;20036;-34
2021/11/11 07:43:30;;;;;;;12.02;6.30;;;;;;;25.77;28.53;97161.19;5065429;28;20415;-36
2021/11/11 07:45:55;;;;;;;14.73;6.50;;;;;;;25.71;27.38;97166.72;5063577;28;20032;-35
2021/11/11 07:48:21;;;;;;;8.20;6.05;;;;;;;25.63;27.03;97168.84;5063187;28;20033;-32
2021/11/11 07:50:47;;;;;;;8.45;5.85;;;;;;;25.55;26.83;97172.66;5056775;28;20056;-31
2021/11/11 07:53:12;;;;;;;9.07;6.00;;;;;;;25.49;26.91;97178.19;5061863;28;20144;-34
2021/11/11 07:55:39;;;;;;;11.10;6.35;;;;;;;25.42;26.74;97185.50;5068508;28;20032;-34
2021/11/11 07:58:05;;;;;;;10.75;6.43;;;;;;;25.38;27.06;97196.19;5062004;28;20056;-32
2021/11/11 08:00:31;;;;;;;12.15;6.13;;;;;;;25.31;27.14;97196.47;5061851;28;20031;-36
2021/11/11 08:02:57;;;;;;;10.38;6.38;;;;;;;25.26;26.82;97214.19;5070134;28;20123;-34
2021/11/11 08:05:22;;;;;;;12.40;6.40;;;;;;;25.22;26.76;97211.75;5067227;28;20669;-32
2021/11/11 08:07:48;;;;;;;18.08;6.45;;;;;;;25.18;26.66;97203.19;5065923;28;20024;-34
2021/11/11 08:10:15;;;;;;;24.60;7.78;;;;;;;25.14;26.50;97209.47;5067118;28;20032;-35
2021/11/11 08:12:40;;;;;;;18.30;7.75;;;;;;;25.10;26.26;97213.16;5066806;28;20381;-34
2021/11/11 08:15:06;;;;;;;29.02;8.55;;;;;;;25.04;26.08;97219.50;5066833;28;20028;-34
2021/11/11 08:17:32;;;;;;;26.45;8.40;;;;;;;25.01;26.03;97224.88;5064215;28;20036;-33
2021/11/11 08:19:57;;;;;;;22.30;7.60;;;;;;;24.97;26.60;97229.41;5069093;28;20113;-33
2021/11/11 08:22:24;;;;;;;15.65;5.93;;;;;;;24.95;26.86;97218.16;5069609;28;20109;-35
2021/11/11 08:24:49;;;;;;;14.10;5.50;;;;;;;24.97;27.51;97216.28;5068566;28;20020;-33
2021/11/11 08:27:15;;;;;;;11.93;5.10;;;;;;;25.02;27.97;97210.88;5067077;28;20020;-34
2021/11/11 08:29:42;;;;;;;13.43;5.25;;;;;;;25.07;28.48;97210.66;5070234;28;20566;-34
2021/11/11 08:32:07;;;;;;;10.70;5.15;;;;;;;25.13;28.65;97213.03;5051065;28;20552;-31
2021/11/11 08:34:33;;;;;;;11.50;4.75;;;;;;;25.17;28.81;97210.19;5071319;28;20035;-35
2021/11/11 08:36:58;;;;;;;12.05;5.10;;;;;;;25.24;28.86;97208.13;5070434;28;20024;-32
2021/11/11 08:39:24;;;;;;;12.00;5.32;;;;;;;25.28;29.07;97209.72;5068377;28;20088;-33
2021/11/11 08:41:51;;;;;;;8.35;4.68;;;;;;;25.35;29.22;97206.84;5069271;28;20036;-35
2021/11/11 08:44:19;;;;;;;11.10;4.38;;;;;;;25.39;29.16;97198.75;5069116;28;20027;-33
2021/11/11 08:46:44;;;;;;;13.52;4.60;;;;;;;25.45;29.25;97208.09;5069031;28;20039;-32
2021/11/11 08:49:10;;;;;;;15.30;4.40;;;;;;;25.50;29.50;97210.50;5069183;28;20032;-32
2021/11/11 08:51:35;;;;;;;7.90;3.90;;;;;;;25.54;29.24;97212.94;5070894;28;20039;-34
2021/11/11 08:54:04;;;;;;;9.50;6.10;;;;;;;25.57;28.91;97212.84;5068764;28;20028;-34
2021/11/11 08:56:30;;;;;;;18.67;8.10;;;;;;;25.51;26.20;97209.63;5067125;28;20062;-28
2021/11/11 08:58:56;;;;;;;14.73;8.82;;;;;;;25.37;24.29;97210.22;5067994;28;20032;-33
2021/11/11 09:01:21;;;;;;;14.15;9.40;;;;;;;25.17;24.30;97204.09;5066143;28;20031;-29
2021/11/11 09:03:47;;;;;;;14.88;9.90;;;;;;;24.95;23.49;97215.53;5073334;28;20024;-34
2021/11/11 09:06:13;;;;;;;19.23;9.55;;;;;;;24.72;23.36;97219.94;5081427;28;20032;-32
2021/11/11 09:08:38;;;;;;;16.88;8.98;;;;;;;24.49;23.51;97219.09;5071807;28;20036;-34
2021/11/11 09:11:04;;;;;;;15.75;8.07;;;;;;;24.35;24.37;97219.69;5070132;28;20039;-32
2021/11/11 09:13:30;;;;;;;20.48;8.10;;;;;;;24.27;24.49;97219.13;5073967;28;20492;-34
2021/11/11 09:15:56;;;;;;;17.08;7.57;;;;;;;24.24;25.06;97217.50;5072139;28;20038;-31
2021/11/11 09:18:21;;;;;;;14.25;6.45;;;;;;;24.22;25.54;97211.44;5070633;28;20491;-34
2021/11/11 09:20:46;;;;;;;9.85;5.70;;;;;;;24.30;26.23;97210.31;5071423;28;20028;-35
2021/11/11 09:23:12;;;;;;;9.90;5.18;;;;;;;24.37;26.61;97219.63;5070636;28;20040;-34
2021/11/11 09:25:38;;;;;;;12.10;5.03;;;;;;;24.42;26.92;97222.91;5070014;28;20028;-34
2021/11/11 09:28:04;;;;;;;12.77;5.20;;;;;;;24.50;26.89;97220.81;5078815;28;20116;-32
2021/11/11 09:30:32;;;;;;;10.95;3.92;;;;;;;24.58;27.24;97220.50;5073948;28;20036;-35
2021/11/11 09:32:57;;;;;;;7.97;4.07;;;;;;;24.67;27.43;97212.25;5074212;28;20037;-34
2021/11/11 09:35:23;;;;;;;11.68;4.47;;;;;;;24.75;27.36;97213.72;5073901;28;20403;-33
2021/11/11 09:37:48;;;;;;;10.88;5.13;;;;;;;24.84;27.34;97230.84;5072232;28;20263;-34
2021/11/11 09:40:16;;;;;;;11.32;4.00;;;;;;;24.90;27.37;97233.22;5073921;28;20032;-33
2021/11/11 09:42:43;;;;;;;8.60;3.90;;;;;;;24.96;27.55;97229.47;5074218;28;20035;-32
2021/11/11 09:45:10;;;;;;;7.30;3.75;;;;;;;25.02;27.73;97230.06;5067521;28;20028;-37
2021/11/11 09:47:35;;;;;;;8.18;4.13;;;;;;;25.09;27.67;97232.44;5068015;28;20089;-33
2021/11/11 09:50:02;;;;;;;12.90;7.00;;;;;;;25.08;27.17;97221.06;5073777;28;20648;-30
2021/11/11 09:52:28;;;;;;;19.38;8.07;;;;;;;25.12;26.08;97227.03;5067123;28;20043;-33
2021/11/11 10:00:24;;;;;;;17.05;8.38;;;;;;;24.97;25.41;97225.94;5068654;28;20073;-32
2021/11/11 10:02:50;;;;;;;17.13;8.32;;;;;;;24.92;25.17;97223.50;5067907;28;20029;-36
2021/11/11 10:05:15;;;;;;;26.25;9.20;;;;;;;24.86;25.35;97226.41;5070901;28;20109;-34
2021/11/11 10:07:41;;;;;;;23.02;8.52;;;;;;;24.83;25.30;97231.72;5069146;28;20551;-34
2021/11/11 10:10:06;;;;;;;17.13;8.43;;;;;;;24.80;25.68;97243.22;5072044;28;20039;-34
2021/11/11 10:12:33;;;;;;;15.13;7.70;;;;;;;24.76;25.80;97242.50;5070337;28;20032;-32
2021/11/11 10:15:10;;;;;;;18.67;8.07;;;;;;;24.75;25.56;97243.38;5071761;28;20571;-34
2021/11/11 10:17:42;;;;;;;21.63;8.77;;;;;;;24.72;25.64;97245.28;5073833;28;20034;-35
2021/11/11 10:20:09;;;;;;;18.88;9.32;;;;;;;24.67;25.58;97237.59;5070089;28;20024;-31
2021/11/11 10:22:36;;;;;;;17.10;9.18;;;;;;;24.64;25.70;97243.81;5070548;28;20032;-33
2021/11/11 10:25:03;;;;;;;16.70;8.27;;;;;;;24.62;25.55;97234.31;5072972;28;20111;-32
2021/11/11 10:30:15;;;;;;;18.85;8.38;;;;;;;24.60;27.03;97231.75;5069859;28;20407;-35
2021/11/11 10:32:49;;;;;;;11.43;5.40;;;;;;;24.62;27.63;97229.94;5066293;28;20024;-32
2021/11/11 10:35:20;;;;;;;7.43;3.92;;;;;;;24.67;27.43;97233.22;5069193;28;20028;-33
2021/11/11 10:37:53;;;;;;;5.53;3.55;;;;;;;24.73;27.79;97232.13;5067437;28;20030;-33
2021/11/11 10:40:21;;;;;;;10.70;4.03;;;;;;;24.78;27.57;97232.78;5069328;28;20111;-34
2021/11/11 10:42:47;;;;;;;7.03;3.40;;;;;;;24.85;27.77;97243.88;5071197;28;20038;-32
2021/11/11 10:45:17;;;;;;;16.58;3.70;;;;;;;24.88;28.02;97235.03;5069751;28;20109;-33
2021/11/11 10:47:44;;;;;;;44.42;8.63;;;;;;;24.93;28.01;97235.69;5065944;28;20723;-33
2021/11/11 10:50:13;;;;;;;49.38;7.88;;;;;;;24.97;28.00;97239.88;5070009;28;20064;-34
2021/11/11 10:52:43;;;;;;;69.40;11.80;;;;;;;25.04;28.00;97236.09;5070139;28;20059;-34
2021/11/11 10:55:19;;;;;;;51.80;9.45;;;;;;;25.09;28.14;97233.25;5070229;28;20020;-34
2021/11/11 10:58:01;;;;;;;32.33;7.90;;;;;;;25.16;28.29;97223.34;5071598;28;20055;-35
2021/11/11 11:00:49;;;;;;;;;;;;;;;25.20;28.35;97230.19;5070374;28;20034;-36
2021/11/11 11:03:17;;;;;;;37.30;6.53;;;;;;;25.26;28.49;97214.19;5067231;28;19916;-32
2021/11/11 11:05:54;;;;;;;22.55;6.28;;;;;;;25.30;28.49;97214.88;5071105;28;20024;-35
2021/11/11 11:08:25;;;;;;;27.00;5.57;;;;;;;25.33;28.41;97214.75;5069642;28;20028;-36
2021/11/11 11:10:56;;;;;;;23.10;6.20;;;;;;;25.38;28.61;97217.16;5073032;28;20827;-36
2021/11/11 11:13:30;;;;;;;25.13;5.82;;;;;;;25.41;28.54;97214.41;5072447;28;20547;-33
2021/11/11 11:16:17;;;;;;;18.67;5.28;;;;;;;25.45;28.85;97213.34;5069281;28;20047;-33
2021/11/11 11:18:55;;;;;;;17.88;5.50;;;;;;;25.49;28.86;97211.44;5071411;28;20043;-37
2021/11/11 11:21:23;;;;;;;15.88;5.28;;;;;;;25.51;28.99;97207.81;5067756;28;20499;-37
2021/11/11 11:23:54;;;;;;;15.52;4.88;;;;;;;25.54;28.84;97214.69;5068397;28;20040;-38
2021/11/11 11:26:36;;;;;;;16.23;5.30;;;;;;;25.56;28.98;97205.88;5064766;28;20147;-33
2021/11/11 11:29:37;;;;;;;;;;;;;;;25.59;29.04;97204.03;5065962;28;20068;-32
2021/11/11 11:32:06;;;;;;;15.75;4.32;;;;;;;25.62;28.98;97206.53;5066749;28;20395;-34
2021/11/11 11:34:34;;;;;;;13.55;4.15;;;;;;;25.63;29.22;97200.34;5063499;28;20136;-36
2021/11/11 11:37:01;;;;;;;14.15;5.05;;;;;;;25.63;29.31;97203.81;5062566;28;20076;-35
2021/11/11 11:39:30;;;;;;;15.60;4.20;;;;;;;25.66;29.25;97201.06;5066224;28;20028;-29
2021/11/11 11:42:00;;;;;;;10.57;4.00;;;;;;;25.68;29.02;97193.97;5068733;28;20028;-36
2021/11/11 11:44:41;;;;;;;13.23;3.78;;;;;;;25.72;29.20;97199.94;5066687;28;20020;-33
2021/11/11 11:47:22;;;;;;;10.80;3.97;;;;;;;25.74;29.24;97195.44;5068447;28;20084;-33
2021/11/11 11:50:13;;;;;;;9.37;3.80;;;;;;;25.76;29.88;97196.25;5070789;28;20522;-32
2021/11/11 11:52:42;;;;;;;11.07;3.92;;;;;;;25.79;30.00;97188.22;5069183;28;20028;-31
2021/11/11 11:55:13;;;;;;;13.30;4.05;;;;;;;25.80;30.09;97174.16;5071891;28;20274;-35
2021/11/11 12:08:47;;;;;;;9.68;3.60;;;;;;;25.89;30.59;97182.53;5067660;28;20039;-31
2021/11/11 12:13:57;;;;;;;10.63;3.00;;;;;;;25.92;30.89;97169.25;5067025;28;20131;-30
2021/11/11 12:17:18;;;;;;;6.63;3.50;;;;;;;25.92;30.64;97164.84;5068917;28;20028;-35